createdAt,value
2018-12-14T00:00:12.679Z,23.00
2018-12-14T00:00:46.617Z,21.68
2018-12-14T00:01:21.290Z,23.32
2018-12-14T00:01:56.446Z,21.75
2018-12-14T00:02:31.856Z,21.85
2018-12-14T00:03:04.475Z,22.65
2018-12-14T00:03:37.075Z,23.30
2018-12-14T00:04:09.669Z,23.62
2018-12-14T00:04:42.246Z,23.12
2018-12-14T00:05:14.829Z,23.15
2018-12-14T00:05:47.441Z,22.52
2018-12-14T00:06:20.018Z,23.90
2018-12-14T00:06:52.593Z,23.60
2018-12-14T00:07:25.176Z,23.95
2018-12-14T00:07:57.732Z,24.85
2018-12-14T00:08:30.308Z,23.90
2018-12-14T00:09:04.152Z,26.85
2018-12-14T00:09:36.748Z,23.57
2018-12-14T00:10:09.593Z,22.90
2018-12-14T00:10:42.176Z,22.85
2018-12-14T00:11:14.758Z,24.60
2018-12-14T00:11:47.391Z,22.17
2018-12-14T00:12:19.982Z,24.65
2018-12-14T00:12:52.556Z,22.87
2018-12-14T00:13:25.154Z,22.35
2018-12-14T00:13:57.704Z,23.00
2018-12-14T00:14:30.322Z,24.87
2018-12-14T00:15:03.841Z,24.35
2018-12-14T00:15:36.455Z,24.35
2018-12-14T00:16:09.056Z,23.95
2018-12-14T00:16:41.772Z,23.90
2018-12-14T00:17:14.366Z,24.35
2018-12-14T00:17:46.952Z,23.10
2018-12-14T00:18:19.539Z,24.57
2018-12-14T00:18:52.127Z,25.32
2018-12-14T00:19:24.705Z,25.82
2018-12-14T00:19:57.317Z,25.17
2018-12-14T00:20:29.892Z,26.07
2018-12-14T00:21:02.623Z,24.60
2018-12-14T00:21:35.233Z,25.80
2018-12-14T00:22:07.847Z,24.87
2018-12-14T00:22:40.420Z,26.05
2018-12-14T00:23:12.983Z,25.15
2018-12-14T00:23:45.532Z,25.80
2018-12-14T00:24:18.105Z,24.98
2018-12-14T00:24:50.676Z,25.50
2018-12-14T00:25:23.289Z,25.20
2018-12-14T00:25:55.858Z,26.25
2018-12-14T00:26:28.455Z,23.70
2018-12-14T00:27:01.051Z,26.12
2018-12-14T00:27:33.637Z,24.72
2018-12-14T00:28:06.218Z,24.67
2018-12-14T00:28:38.780Z,25.00
2018-12-14T00:29:11.491Z,24.67
2018-12-14T00:29:44.202Z,22.27
2018-12-14T00:30:16.780Z,23.67
2018-12-14T00:30:49.368Z,24.12
2018-12-14T00:31:21.972Z,22.00
2018-12-14T00:31:54.549Z,22.13
2018-12-14T00:32:27.155Z,23.52
2018-12-14T00:32:59.739Z,24.15
2018-12-14T00:33:32.322Z,22.45
2018-12-14T00:34:04.900Z,22.67
2018-12-14T00:34:37.456Z,23.80
2018-12-14T00:35:10.067Z,23.05
2018-12-14T00:35:42.827Z,23.62
2018-12-14T00:36:15.853Z,23.67
2018-12-14T00:36:48.469Z,23.32
2018-12-14T00:37:25.497Z,23.80
2018-12-14T00:37:58.357Z,23.73
2018-12-14T00:38:31.097Z,23.27
2018-12-14T00:39:05.617Z,23.12
2018-12-14T00:39:38.205Z,22.45
2018-12-14T00:40:10.827Z,23.02
2018-12-14T00:40:43.438Z,23.10
2018-12-14T00:41:16.093Z,23.20
2018-12-14T00:41:51.891Z,22.87
2018-12-14T00:42:23.311Z,21.50
2018-12-14T00:42:55.903Z,22.80
2018-12-14T00:43:28.484Z,22.22
2018-12-14T00:44:01.059Z,21.57
2018-12-14T00:44:33.654Z,23.10
2018-12-14T00:45:06.239Z,22.32
2018-12-14T00:45:38.832Z,21.10
2018-12-14T00:46:11.518Z,22.93
2018-12-14T00:46:44.094Z,21.75
2018-12-14T00:47:16.698Z,20.02
2018-12-14T00:47:49.263Z,22.13
2018-12-14T00:48:21.825Z,22.50
2018-12-14T00:48:54.410Z,22.02
2018-12-14T00:49:27.000Z,21.85
2018-12-14T00:49:59.570Z,21.90
2018-12-14T00:50:32.277Z,21.10
2018-12-14T00:51:04.925Z,20.90
2018-12-14T00:51:37.519Z,19.42
2018-12-14T00:52:10.121Z,22.20
2018-12-14T00:52:42.707Z,20.48
2018-12-14T00:53:15.304Z,21.20
2018-12-14T00:53:47.889Z,20.25
2018-12-14T00:54:20.488Z,21.25
2018-12-14T00:54:53.067Z,20.25
2018-12-14T00:55:25.662Z,20.82
2018-12-14T00:55:58.232Z,19.67
2018-12-14T00:56:30.818Z,20.75
2018-12-14T00:57:03.407Z,21.20
2018-12-14T00:57:35.997Z,20.70
2018-12-14T00:58:08.603Z,20.90
2018-12-14T00:58:41.174Z,20.00
2018-12-14T00:59:13.744Z,19.40
2018-12-14T00:59:46.341Z,19.00
2018-12-14T01:00:18.930Z,19.55
2018-12-14T01:00:51.508Z,19.15
2018-12-14T01:01:24.076Z,18.75
2018-12-14T01:01:56.652Z,18.20
2018-12-14T01:02:29.395Z,19.05
2018-12-14T01:03:01.950Z,19.05
2018-12-14T01:03:34.698Z,20.17
2018-12-14T01:04:07.319Z,21.02
2018-12-14T01:04:39.892Z,19.23
2018-12-14T01:05:12.584Z,18.45
2018-12-14T01:05:45.420Z,18.62
2018-12-14T01:06:17.985Z,18.30
2018-12-14T01:06:50.548Z,18.48
2018-12-14T01:07:23.135Z,18.90
2018-12-14T01:07:55.729Z,19.27
2018-12-14T01:08:28.326Z,19.02
2018-12-14T01:09:00.922Z,19.65
2018-12-14T01:09:33.489Z,19.05
2018-12-14T01:10:06.206Z,18.80
2018-12-14T01:10:38.921Z,17.95
2018-12-14T01:11:11.496Z,19.52
2018-12-14T01:11:44.082Z,17.20
2018-12-14T01:12:16.697Z,17.32
2018-12-14T01:12:49.285Z,17.67
2018-12-14T01:13:21.857Z,19.15
2018-12-14T01:13:54.621Z,18.75
2018-12-14T01:14:27.222Z,18.25
2018-12-14T01:14:59.783Z,17.62
2018-12-14T01:15:32.556Z,19.23
2018-12-14T01:16:05.367Z,19.30
2018-12-14T01:16:37.986Z,18.60
2018-12-14T01:17:10.571Z,19.37
2018-12-14T01:17:43.160Z,17.57
2018-12-14T01:18:15.771Z,18.57
2018-12-14T01:18:48.366Z,18.45
2018-12-14T01:19:20.952Z,18.82
2018-12-14T01:19:53.579Z,19.48
2018-12-14T01:20:26.183Z,19.30
2018-12-14T01:20:58.790Z,18.57
2018-12-14T01:21:31.384Z,17.20
2018-12-14T01:22:03.969Z,17.70
2018-12-14T01:22:36.660Z,17.40
2018-12-14T01:23:09.233Z,19.10
2018-12-14T01:23:41.821Z,17.77
2018-12-14T01:24:14.662Z,18.95
2018-12-14T01:24:47.245Z,19.75
2018-12-14T01:25:19.875Z,18.17
2018-12-14T01:25:52.497Z,17.62
2018-12-14T01:26:25.092Z,16.45
2018-12-14T01:26:57.699Z,18.17
2018-12-14T01:27:32.984Z,18.23
2018-12-14T01:28:05.570Z,17.10
2018-12-14T01:28:38.164Z,18.00
2018-12-14T01:29:10.752Z,18.62
2018-12-14T01:29:43.342Z,17.98
2018-12-14T01:30:15.938Z,17.92
2018-12-14T01:30:48.660Z,17.62
2018-12-14T01:31:21.250Z,17.50
2018-12-14T01:31:53.826Z,19.02
2018-12-14T01:32:26.401Z,19.65
2018-12-14T01:32:58.988Z,19.25
2018-12-14T01:33:31.590Z,17.87
2018-12-14T01:34:04.180Z,18.35
2018-12-14T01:34:36.750Z,19.42
2018-12-14T01:35:09.320Z,18.62
2018-12-14T01:35:41.901Z,18.37
2018-12-14T01:36:14.507Z,17.48
2018-12-14T01:36:47.107Z,18.30
2018-12-14T01:37:19.697Z,18.80
2018-12-14T01:37:52.282Z,17.77
2018-12-14T01:38:25.421Z,17.57
2018-12-14T01:38:58.004Z,19.12
2018-12-14T01:39:30.618Z,18.17
2018-12-14T01:40:04.095Z,17.37
2018-12-14T01:40:36.988Z,17.48
2018-12-14T01:41:09.549Z,18.35
2018-12-14T01:41:42.289Z,18.20
2018-12-14T01:42:15.505Z,17.73
2018-12-14T01:42:48.069Z,17.75
2018-12-14T01:43:22.335Z,18.90
2018-12-14T01:43:55.273Z,18.02
2018-12-14T01:44:28.723Z,19.02
2018-12-14T01:45:01.368Z,17.17
2018-12-14T01:45:33.961Z,17.85
2018-12-14T01:46:06.671Z,19.67
2018-12-14T01:46:39.293Z,17.77
2018-12-14T01:47:11.918Z,20.25
2018-12-14T01:47:44.653Z,18.35
2018-12-14T01:48:17.265Z,20.48
2018-12-14T01:48:49.866Z,20.17
2018-12-14T01:49:22.538Z,18.75
2018-12-14T01:49:55.191Z,19.40
2018-12-14T01:50:27.781Z,19.35
2018-12-14T01:51:00.430Z,18.57
2018-12-14T01:51:33.121Z,17.92
2018-12-14T01:52:05.777Z,19.42
2018-12-14T01:52:38.506Z,17.80
2018-12-14T01:53:11.084Z,18.23
2018-12-14T01:53:43.749Z,18.40
2018-12-14T01:54:16.410Z,19.55
2018-12-14T01:54:49.198Z,19.23
2018-12-14T01:55:22.077Z,17.82
2018-12-14T01:55:54.746Z,19.40
2018-12-14T01:56:27.348Z,19.27
2018-12-14T01:56:59.937Z,18.15
2018-12-14T01:57:32.851Z,18.70
2018-12-14T01:58:05.545Z,18.27
2018-12-14T01:58:38.259Z,17.70
2018-12-14T01:59:10.846Z,18.62
2018-12-14T01:59:43.430Z,17.90
2018-12-14T02:00:16.335Z,19.87
2018-12-14T02:00:48.922Z,17.98
2018-12-14T02:01:21.510Z,19.02
2018-12-14T02:01:54.113Z,17.62
2018-12-14T02:02:26.689Z,17.25
2018-12-14T02:02:59.272Z,18.30
2018-12-14T02:03:31.883Z,18.35
2018-12-14T02:04:04.475Z,18.42
2018-12-14T02:04:37.049Z,17.75
2018-12-14T02:05:09.617Z,20.05
2018-12-14T02:05:42.193Z,18.80
2018-12-14T02:06:14.789Z,17.80
2018-12-14T02:06:47.359Z,17.77
2018-12-14T02:07:19.952Z,19.70
2018-12-14T02:07:52.654Z,18.67
2018-12-14T02:08:25.242Z,17.40
2018-12-14T02:08:57.852Z,18.25
2018-12-14T02:09:30.459Z,20.00
2018-12-14T02:10:03.293Z,18.10
2018-12-14T02:10:35.885Z,18.62
2018-12-14T02:11:08.477Z,18.40
2018-12-14T02:11:41.070Z,18.87
2018-12-14T02:12:13.661Z,18.12
2018-12-14T02:12:46.249Z,16.80
2018-12-14T02:13:18.869Z,18.05
2018-12-14T02:13:51.434Z,19.07
2018-12-14T02:14:24.194Z,19.95
2018-12-14T02:14:56.787Z,18.50
2018-12-14T02:15:29.499Z,18.75
2018-12-14T02:16:02.135Z,18.00
2018-12-14T02:16:34.775Z,19.37
2018-12-14T02:17:07.431Z,18.25
2018-12-14T02:17:40.049Z,18.62
2018-12-14T02:18:12.752Z,19.07
2018-12-14T02:18:45.336Z,19.00
2018-12-14T02:19:17.917Z,18.75
2018-12-14T02:19:50.526Z,18.57
2018-12-14T02:20:23.141Z,18.30
2018-12-14T02:20:55.869Z,18.30
2018-12-14T02:21:28.487Z,18.17
2018-12-14T02:22:01.079Z,19.20
2018-12-14T02:22:33.663Z,18.15
2018-12-14T02:23:06.273Z,17.92
2018-12-14T02:23:38.852Z,20.30
2018-12-14T02:24:11.485Z,17.98
2018-12-14T02:24:44.085Z,17.07
2018-12-14T02:25:16.693Z,17.80
2018-12-14T02:25:49.287Z,19.23
2018-12-14T02:26:21.888Z,17.98
2018-12-14T02:26:54.498Z,18.12
2018-12-14T02:27:27.095Z,17.92
2018-12-14T02:27:59.675Z,18.70
2018-12-14T02:28:32.275Z,18.57
2018-12-14T02:29:04.878Z,18.02
2018-12-14T02:29:37.479Z,18.35
2018-12-14T02:30:21.348Z,17.87
2018-12-14T02:30:53.928Z,18.90
2018-12-14T02:31:26.526Z,18.00
2018-12-14T02:31:59.130Z,16.90
2018-12-14T02:32:31.719Z,17.80
2018-12-14T02:33:04.325Z,18.80
2018-12-14T02:33:36.998Z,17.73
2018-12-14T02:34:09.696Z,17.92
2018-12-14T02:34:42.424Z,18.05
2018-12-14T02:35:15.018Z,17.85
2018-12-14T02:35:47.684Z,19.45
2018-12-14T02:36:20.280Z,19.45
2018-12-14T02:36:52.965Z,19.25
2018-12-14T02:37:25.545Z,19.25
2018-12-14T02:37:58.266Z,18.77
2018-12-14T02:38:30.884Z,18.62
2018-12-14T02:39:05.061Z,17.40
2018-12-14T02:39:37.632Z,19.23
2018-12-14T02:40:10.351Z,18.70
2018-12-14T02:40:42.948Z,18.48
2018-12-14T02:41:15.586Z,17.55
2018-12-14T02:41:48.176Z,18.12
2018-12-14T02:42:20.749Z,18.80
2018-12-14T02:42:53.326Z,18.23
2018-12-14T02:43:25.940Z,18.57
2018-12-14T02:43:58.514Z,18.50
2018-12-14T02:44:31.101Z,19.07
2018-12-14T02:45:04.075Z,18.05
2018-12-14T02:45:36.785Z,18.57
2018-12-14T02:46:09.371Z,17.92
2018-12-14T02:46:42.005Z,17.85
2018-12-14T02:47:14.581Z,20.30
2018-12-14T02:47:47.195Z,18.62
2018-12-14T02:48:19.822Z,17.85
2018-12-14T02:48:52.421Z,17.23
2018-12-14T02:49:24.996Z,18.48
2018-12-14T02:49:57.563Z,17.90
2018-12-14T02:50:30.161Z,19.35
2018-12-14T02:51:02.760Z,17.80
2018-12-14T02:51:35.497Z,19.37
2018-12-14T02:52:08.122Z,19.17
2018-12-14T02:52:40.717Z,17.25
2018-12-14T02:53:13.295Z,18.20
2018-12-14T02:53:45.849Z,18.27
2018-12-14T02:54:18.431Z,18.85
2018-12-14T02:54:51.025Z,19.42
2018-12-14T02:55:23.617Z,17.80
2018-12-14T02:55:56.208Z,19.37
2018-12-14T02:56:28.806Z,18.23
2018-12-14T02:57:01.395Z,18.07
2018-12-14T02:57:34.012Z,19.00
2018-12-14T02:58:06.584Z,19.30
2018-12-14T02:58:39.167Z,18.15
2018-12-14T02:59:11.754Z,17.73
2018-12-14T02:59:44.348Z,19.30
2018-12-14T03:00:16.950Z,19.45
2018-12-14T03:00:49.538Z,17.80
2018-12-14T03:01:22.246Z,18.15
2018-12-14T03:01:54.831Z,18.67
2018-12-14T03:02:27.438Z,18.90
2018-12-14T03:03:00.064Z,18.73
2018-12-14T03:03:32.657Z,17.95
2018-12-14T03:04:05.250Z,17.48
2018-12-14T03:04:37.834Z,17.45
2018-12-14T03:05:10.431Z,19.02
2018-12-14T03:05:43.035Z,19.23
2018-12-14T03:06:15.745Z,18.67
2018-12-14T03:06:48.340Z,18.40
2018-12-14T03:07:20.946Z,19.82
2018-12-14T03:07:53.540Z,19.42
2018-12-14T03:08:26.149Z,19.30
2018-12-14T03:08:58.729Z,19.30
2018-12-14T03:09:31.310Z,19.07
2018-12-14T03:10:04.870Z,18.07
2018-12-14T03:10:37.436Z,20.23
2018-12-14T03:11:10.013Z,17.95
2018-12-14T03:11:42.611Z,18.37
2018-12-14T03:12:15.211Z,17.00
2018-12-14T03:12:47.805Z,19.02
2018-12-14T03:13:20.409Z,18.85
2018-12-14T03:13:53.002Z,20.48
2018-12-14T03:14:25.736Z,19.23
2018-12-14T03:14:58.322Z,19.57
2018-12-14T03:15:30.929Z,17.60
2018-12-14T03:16:03.513Z,18.77
2018-12-14T03:16:36.111Z,17.45
2018-12-14T03:17:08.857Z,20.15
2018-12-14T03:17:41.488Z,19.87
2018-12-14T03:18:14.076Z,19.12
2018-12-14T03:18:46.651Z,20.12
2018-12-14T03:19:19.272Z,18.73
2018-12-14T03:19:51.988Z,19.57
2018-12-14T03:20:24.570Z,19.75
2018-12-14T03:20:57.164Z,19.92
2018-12-14T03:21:29.733Z,19.20
2018-12-14T03:22:02.313Z,22.13
2018-12-14T03:22:35.039Z,20.00
2018-12-14T03:23:07.628Z,19.90
2018-12-14T03:23:40.222Z,21.70
2018-12-14T03:24:12.819Z,20.43
2018-12-14T03:24:45.451Z,21.42
2018-12-14T03:25:18.071Z,21.73
2018-12-14T03:25:50.808Z,19.48
2018-12-14T03:26:23.383Z,19.98
2018-12-14T03:26:55.963Z,21.12
2018-12-14T03:27:28.585Z,19.73
2018-12-14T03:28:01.146Z,20.60
2018-12-14T03:28:33.730Z,20.10
2018-12-14T03:29:06.315Z,21.42
2018-12-14T03:29:38.918Z,22.40
2018-12-14T03:30:11.567Z,22.50
2018-12-14T03:30:44.182Z,19.15
2018-12-14T03:31:16.766Z,20.82
2018-12-14T03:31:49.341Z,21.02
2018-12-14T03:32:21.962Z,22.95
2018-12-14T03:32:54.573Z,22.02
2018-12-14T03:33:27.276Z,21.48
2018-12-14T03:33:59.841Z,20.60
2018-12-14T03:34:32.425Z,22.65
2018-12-14T03:35:05.279Z,22.22
2018-12-14T03:35:37.893Z,21.15
2018-12-14T03:36:10.474Z,22.17
2018-12-14T03:36:43.067Z,22.17
2018-12-14T03:37:15.661Z,20.65
2018-12-14T03:37:48.261Z,22.37
2018-12-14T03:38:20.859Z,24.32
2018-12-14T03:38:53.442Z,21.40
2018-12-14T03:39:26.040Z,22.22
2018-12-14T03:39:58.623Z,22.95
2018-12-14T03:40:31.441Z,22.95
2018-12-14T03:41:04.317Z,24.25
2018-12-14T03:41:37.056Z,24.37
2018-12-14T03:42:09.650Z,22.70
2018-12-14T03:42:42.206Z,23.18
2018-12-14T03:43:14.803Z,22.90
2018-12-14T03:43:47.375Z,22.20
2018-12-14T03:44:19.946Z,22.00
2018-12-14T03:44:52.533Z,22.70
2018-12-14T03:45:25.151Z,23.87
2018-12-14T03:45:57.766Z,22.67
2018-12-14T03:46:30.403Z,23.47
2018-12-14T03:47:03.100Z,22.55
2018-12-14T03:47:35.698Z,23.47
2018-12-14T03:48:08.312Z,22.07
2018-12-14T03:48:40.925Z,22.60
2018-12-14T03:49:13.504Z,23.45
2018-12-14T03:49:46.124Z,23.45
2018-12-14T03:50:18.727Z,24.75
2018-12-14T03:50:51.307Z,24.05
2018-12-14T03:51:27.837Z,22.20
2018-12-14T03:52:00.486Z,22.85
2018-12-14T03:52:33.068Z,23.15
2018-12-14T03:53:05.669Z,23.25
2018-12-14T03:53:38.275Z,23.95
2018-12-14T03:54:10.854Z,23.00
2018-12-14T03:54:43.458Z,23.45
2018-12-14T03:55:16.122Z,23.83
2018-12-14T03:55:48.705Z,22.95
2018-12-14T03:56:21.330Z,21.20
2018-12-14T03:56:53.915Z,21.68
2018-12-14T03:57:26.550Z,20.88
2018-12-14T03:58:03.910Z,23.30
2018-12-14T03:58:36.485Z,23.62
2018-12-14T03:59:09.098Z,21.70
2018-12-14T03:59:41.750Z,22.93
2018-12-14T04:00:17.983Z,23.98
2018-12-14T04:00:50.742Z,21.48
2018-12-14T04:01:23.344Z,23.20
2018-12-14T04:01:55.966Z,22.85
2018-12-14T04:02:28.575Z,22.65
2018-12-14T04:03:01.315Z,23.60
2018-12-14T04:03:33.924Z,23.73
2018-12-14T04:04:06.515Z,22.48
2018-12-14T04:04:39.089Z,23.60
2018-12-14T04:05:11.681Z,23.15
2018-12-14T04:05:44.290Z,23.25
2018-12-14T04:06:16.881Z,22.13
2018-12-14T04:06:49.481Z,22.95
2018-12-14T04:07:22.214Z,22.77
2018-12-14T04:07:54.932Z,21.10
2018-12-14T04:08:27.519Z,21.20
2018-12-14T04:09:00.113Z,21.95
2018-12-14T04:09:32.750Z,21.42
2018-12-14T04:10:06.170Z,22.37
2018-12-14T04:10:38.777Z,22.42
2018-12-14T04:11:11.476Z,22.15
2018-12-14T04:11:44.194Z,21.82
2018-12-14T04:12:16.758Z,22.25
2018-12-14T04:12:49.378Z,21.80
2018-12-14T04:13:22.094Z,22.00
2018-12-14T04:13:54.686Z,22.50
2018-12-14T04:14:27.267Z,22.27
2018-12-14T04:14:59.862Z,23.35
2018-12-14T04:15:32.574Z,21.33
2018-12-14T04:16:05.178Z,22.67
2018-12-14T04:16:37.781Z,21.85
2018-12-14T04:17:10.364Z,22.45
2018-12-14T04:17:42.964Z,23.42
2018-12-14T04:18:15.561Z,21.48
2018-12-14T04:18:48.182Z,22.17
2018-12-14T04:19:20.771Z,22.22
2018-12-14T04:19:53.373Z,22.20
2018-12-14T04:20:26.099Z,22.22
2018-12-14T04:20:58.725Z,21.50
2018-12-14T04:21:31.351Z,20.68
2018-12-14T04:22:03.971Z,21.57
2018-12-14T04:22:36.585Z,21.20
2018-12-14T04:23:09.235Z,22.90
2018-12-14T04:23:41.863Z,21.68
2018-12-14T04:24:14.504Z,21.00
2018-12-14T04:24:47.107Z,21.80
2018-12-14T04:25:19.701Z,24.27
2018-12-14T04:25:52.288Z,22.45
2018-12-14T04:26:24.857Z,22.87
2018-12-14T04:26:57.445Z,22.15
2018-12-14T04:27:30.047Z,21.25
2018-12-14T04:28:02.630Z,21.70
2018-12-14T04:28:35.864Z,21.55
2018-12-14T04:29:08.456Z,22.15
2018-12-14T04:29:41.069Z,21.73
2018-12-14T04:30:13.779Z,21.50
2018-12-14T04:30:46.336Z,22.22
2018-12-14T04:31:18.937Z,23.27
2018-12-14T04:31:51.540Z,23.73
2018-12-14T04:32:24.128Z,23.20
2018-12-14T04:32:56.899Z,23.10
2018-12-14T04:33:29.770Z,23.25
2018-12-14T04:34:02.337Z,23.05
2018-12-14T04:34:34.942Z,23.92
2018-12-14T04:35:07.675Z,22.42
2018-12-14T04:35:40.266Z,22.42
2018-12-14T04:36:12.940Z,23.62
2018-12-14T04:36:45.605Z,22.95
2018-12-14T04:37:18.185Z,23.07
2018-12-14T04:37:50.752Z,23.90
2018-12-14T04:38:23.335Z,22.65
2018-12-14T04:38:55.921Z,23.65
2018-12-14T04:39:28.859Z,21.42
2018-12-14T04:40:01.459Z,21.73
2018-12-14T04:40:34.072Z,23.00
2018-12-14T04:41:06.688Z,21.50
2018-12-14T04:41:39.305Z,22.35
2018-12-14T04:42:11.899Z,22.00
2018-12-14T04:42:48.827Z,22.75
2018-12-14T04:43:19.223Z,22.30
2018-12-14T04:43:51.857Z,22.87
2018-12-14T04:44:24.641Z,22.13
2018-12-14T04:44:57.255Z,23.47
2018-12-14T04:45:29.829Z,23.12
2018-12-14T04:46:02.423Z,22.98
2018-12-14T04:46:35.002Z,23.00
2018-12-14T04:47:07.775Z,22.90
2018-12-14T04:47:40.495Z,22.93
2018-12-14T04:48:13.109Z,22.60
2018-12-14T04:48:45.694Z,23.35
2018-12-14T04:49:18.625Z,24.37
2018-12-14T04:49:51.323Z,22.05
2018-12-14T04:50:23.912Z,22.50
2018-12-14T04:50:56.499Z,23.10
2018-12-14T04:51:29.137Z,23.40
2018-12-14T04:52:03.836Z,24.00
2018-12-14T04:52:36.434Z,23.50
2018-12-14T04:53:09.005Z,23.35
2018-12-14T04:53:41.586Z,23.55
2018-12-14T04:54:14.149Z,23.32
2018-12-14T04:54:46.754Z,25.60
2018-12-14T04:55:19.366Z,22.02
2018-12-14T04:55:51.968Z,23.80
2018-12-14T04:56:24.570Z,23.57
2018-12-14T04:56:57.188Z,24.12
2018-12-14T04:57:29.788Z,24.12
2018-12-14T04:58:02.388Z,22.42
2018-12-14T04:58:34.973Z,23.70
2018-12-14T04:59:09.147Z,20.92
2018-12-14T04:59:41.832Z,22.52
2018-12-14T05:00:14.558Z,22.95
2018-12-14T05:00:47.176Z,22.10
2018-12-14T05:01:19.787Z,23.65
2018-12-14T05:01:52.403Z,22.32
2018-12-14T05:02:25.038Z,23.47
2018-12-14T05:02:57.625Z,23.20
2018-12-14T05:03:30.235Z,21.10
2018-12-14T05:04:02.890Z,22.70
2018-12-14T05:04:35.557Z,22.60
2018-12-14T05:05:08.145Z,22.05
2018-12-14T05:05:40.743Z,21.77
2018-12-14T05:06:13.330Z,22.90
2018-12-14T05:06:45.909Z,23.22
2018-12-14T05:07:18.493Z,22.27
2018-12-14T05:07:51.111Z,22.40
2018-12-14T05:08:23.702Z,21.37
2018-12-14T05:08:56.275Z,22.75
2018-12-14T05:09:28.860Z,21.80
2018-12-14T05:10:01.429Z,21.62
2018-12-14T05:10:34.008Z,22.50
2018-12-14T05:11:06.615Z,22.05
2018-12-14T05:11:39.427Z,20.80
2018-12-14T05:12:12.255Z,20.97
2018-12-14T05:12:44.852Z,21.57
2018-12-14T05:13:17.482Z,22.75
2018-12-14T05:13:50.079Z,21.93
2018-12-14T05:14:22.785Z,22.93
2018-12-14T05:14:55.431Z,22.85
2018-12-14T05:15:28.013Z,21.02
2018-12-14T05:16:00.586Z,21.50
2018-12-14T05:16:33.163Z,22.37
2018-12-14T05:17:05.755Z,20.75
2018-12-14T05:17:38.363Z,22.02
2018-12-14T05:18:10.968Z,22.67
2018-12-14T05:18:43.596Z,23.45
2018-12-14T05:19:16.181Z,20.57
2018-12-14T05:19:48.755Z,20.23
2018-12-14T05:20:21.328Z,21.07
2018-12-14T05:20:53.926Z,20.77
2018-12-14T05:21:26.519Z,22.37
2018-12-14T05:21:59.277Z,21.15
2018-12-14T05:22:31.865Z,21.70
2018-12-14T05:23:04.451Z,20.85
2018-12-14T05:23:37.042Z,21.20
2018-12-14T05:24:09.649Z,22.20
2018-12-14T05:24:42.226Z,21.87
2018-12-14T05:25:14.956Z,20.75
2018-12-14T05:25:47.656Z,21.17
2018-12-14T05:26:20.270Z,23.00
2018-12-14T05:26:53.727Z,23.65
2018-12-14T05:27:26.326Z,22.95
2018-12-14T05:27:58.924Z,23.83
2018-12-14T05:28:31.521Z,22.48
2018-12-14T05:29:04.101Z,22.13
2018-12-14T05:29:36.713Z,22.55
2018-12-14T05:30:09.578Z,22.75
2018-12-14T05:30:42.188Z,22.35
2018-12-14T05:31:14.769Z,22.25
2018-12-14T05:31:47.360Z,21.93
2018-12-14T05:32:19.961Z,21.33
2018-12-14T05:32:52.546Z,22.25
2018-12-14T05:33:25.132Z,22.42
2018-12-14T05:33:57.728Z,22.30
2018-12-14T05:34:30.339Z,21.37
2018-12-14T05:35:03.219Z,22.05
2018-12-14T05:35:35.808Z,22.48
2018-12-14T05:36:08.397Z,21.60
2018-12-14T05:36:41.008Z,21.35
2018-12-14T05:37:13.592Z,22.45
2018-12-14T05:37:46.205Z,23.12
2018-12-14T05:38:18.797Z,21.87
2018-12-14T05:38:51.390Z,23.35
2018-12-14T05:39:24.333Z,22.10
2018-12-14T05:39:56.906Z,21.73
2018-12-14T05:40:29.520Z,21.25
2018-12-14T05:41:02.098Z,21.60
2018-12-14T05:41:34.672Z,22.37
2018-12-14T05:42:07.280Z,22.35
2018-12-14T05:42:39.870Z,22.07
2018-12-14T05:43:12.472Z,20.15
2018-12-14T05:43:45.067Z,20.97
2018-12-14T05:44:17.660Z,20.70
2018-12-14T05:44:50.247Z,22.10
2018-12-14T05:45:22.828Z,20.00
2018-12-14T05:45:55.458Z,24.35
2018-12-14T05:46:28.047Z,23.57
2018-12-14T05:47:00.645Z,25.50
2018-12-14T05:47:33.217Z,24.20
2018-12-14T05:48:05.797Z,25.40
2018-12-14T05:48:38.406Z,25.70
2018-12-14T05:49:11.083Z,28.02
2018-12-14T05:49:43.678Z,25.12
2018-12-14T05:50:16.260Z,24.07
2018-12-14T05:50:48.833Z,24.90
2018-12-14T05:51:21.450Z,25.30
2018-12-14T05:51:54.064Z,22.82
2018-12-14T05:52:26.697Z,21.42
2018-12-14T05:52:59.284Z,20.48
2018-12-14T05:53:31.878Z,20.23
2018-12-14T05:54:04.588Z,21.70
2018-12-14T05:54:37.178Z,19.90
2018-12-14T05:55:09.781Z,19.27
2018-12-14T05:55:42.371Z,19.65
2018-12-14T05:56:14.953Z,18.98
2018-12-14T05:56:47.714Z,18.62
2018-12-14T05:57:20.428Z,18.20
2018-12-14T05:57:53.042Z,17.45
2018-12-14T05:58:26.008Z,19.15
2018-12-14T05:58:58.756Z,20.37
2018-12-14T05:59:31.342Z,19.17
2018-12-14T06:00:05.437Z,20.40
2018-12-14T06:00:38.021Z,17.70
2018-12-14T06:01:10.604Z,18.80
2018-12-14T06:01:43.182Z,18.62
2018-12-14T06:02:15.926Z,18.45
2018-12-14T06:02:48.500Z,18.05
2018-12-14T06:03:21.081Z,19.00
2018-12-14T06:03:53.844Z,16.90
2018-12-14T06:04:26.439Z,18.50
2018-12-14T06:04:59.022Z,17.55
2018-12-14T06:05:31.604Z,17.27
2018-12-14T06:06:04.205Z,17.82
2018-12-14T06:06:36.827Z,16.93
2018-12-14T06:07:09.467Z,17.70
2018-12-14T06:07:42.087Z,17.62
2018-12-14T06:08:14.660Z,16.62
2018-12-14T06:08:47.253Z,18.77
2018-12-14T06:09:19.832Z,18.15
2018-12-14T06:09:52.397Z,18.42
2018-12-14T06:10:24.974Z,19.82
2018-12-14T06:10:57.599Z,18.40
2018-12-14T06:11:30.197Z,16.35
2018-12-14T06:12:02.938Z,18.57
2018-12-14T06:12:35.665Z,17.55
2018-12-14T06:13:09.190Z,18.42
2018-12-14T06:13:42.198Z,17.32
2018-12-14T06:14:14.760Z,17.77
2018-12-14T06:14:47.500Z,17.02
2018-12-14T06:15:20.138Z,17.70
2018-12-14T06:15:52.749Z,16.27
2018-12-14T06:16:25.332Z,17.02
2018-12-14T06:16:58.040Z,16.93
2018-12-14T06:17:30.620Z,17.55
2018-12-14T06:18:03.341Z,16.62
2018-12-14T06:18:35.971Z,17.17
2018-12-14T06:19:08.550Z,16.07
2018-12-14T06:19:41.176Z,15.83
2018-12-14T06:20:13.894Z,17.23
2018-12-14T06:20:46.460Z,18.02
2018-12-14T06:21:19.078Z,16.60
2018-12-14T06:21:51.641Z,16.80
2018-12-14T06:22:24.237Z,16.40
2018-12-14T06:22:56.818Z,17.00
2018-12-14T06:23:29.525Z,16.77
2018-12-14T06:24:02.159Z,17.10
2018-12-14T06:24:34.775Z,17.17
2018-12-14T06:25:07.590Z,17.77
2018-12-14T06:25:40.161Z,18.15
2018-12-14T06:26:12.798Z,19.30
2018-12-14T06:26:45.385Z,19.42
2018-12-14T06:27:18.013Z,20.30
2018-12-14T06:27:50.614Z,20.25
2018-12-14T06:28:23.201Z,19.60
2018-12-14T06:28:55.785Z,20.68
2018-12-14T06:29:28.383Z,19.35
2018-12-14T06:30:00.990Z,18.90
2018-12-14T06:30:33.639Z,18.60
2018-12-14T06:31:06.242Z,19.05
2018-12-14T06:31:38.827Z,17.25
2018-12-14T06:32:11.420Z,16.85
2018-12-14T06:32:44.005Z,16.45
2018-12-14T06:33:16.623Z,16.97
2018-12-14T06:33:49.230Z,15.45
2018-12-14T06:34:21.825Z,16.12
2018-12-14T06:34:54.457Z,16.00
2018-12-14T06:35:27.034Z,15.68
2018-12-14T06:35:59.609Z,16.00
2018-12-14T06:36:32.208Z,16.25
2018-12-14T06:37:04.808Z,16.35
2018-12-14T06:37:40.305Z,16.52
2018-12-14T06:38:12.962Z,17.67
2018-12-14T06:38:45.563Z,16.17
2018-12-14T06:39:18.282Z,16.15
2018-12-14T06:39:50.872Z,16.67
2018-12-14T06:40:23.486Z,16.70
2018-12-14T06:40:56.087Z,15.48
2018-12-14T06:41:28.669Z,17.07
2018-12-14T06:42:01.405Z,16.87
2018-12-14T06:42:33.972Z,16.10
2018-12-14T06:43:06.701Z,16.60
2018-12-14T06:43:39.280Z,14.95
2018-12-14T06:44:11.885Z,16.12
2018-12-14T06:44:44.470Z,15.23
2018-12-14T06:45:17.075Z,15.48
2018-12-14T06:45:49.710Z,14.05
2018-12-14T06:46:22.299Z,16.57
2018-12-14T06:46:54.906Z,15.80
2018-12-14T06:47:28.982Z,14.83
2018-12-14T06:48:01.585Z,15.53
2018-12-14T06:48:34.152Z,14.55
2018-12-14T06:49:06.729Z,15.90
2018-12-14T06:49:39.335Z,15.75
2018-12-14T06:50:11.922Z,15.45
2018-12-14T06:50:44.637Z,15.68
2018-12-14T06:51:17.240Z,14.70
2018-12-14T06:51:49.859Z,14.20
2018-12-14T06:52:22.456Z,14.33
2018-12-14T06:52:55.230Z,15.23
2018-12-14T06:53:27.782Z,15.35
2018-12-14T06:54:00.378Z,15.13
2018-12-14T06:54:32.954Z,14.80
2018-12-14T06:55:05.826Z,13.25
2018-12-14T06:55:38.389Z,14.10
2018-12-14T06:56:10.977Z,14.60
2018-12-14T06:56:43.593Z,14.23
2018-12-14T06:57:16.178Z,14.80
2018-12-14T06:57:48.767Z,12.93
2018-12-14T06:58:21.379Z,14.75
2018-12-14T06:58:53.989Z,14.05
2018-12-14T06:59:26.565Z,14.43
2018-12-14T06:59:59.153Z,14.38
2018-12-14T07:00:31.738Z,14.55
2018-12-14T07:01:04.334Z,14.75